sensor_id;sensor_type;location;lat;lon;timestamp;P1;durP1;ratioP1;P2;durP2;ratioP2
69835;SDS011;57132;51.972;4.450;2023-04-24T00:00:55;11.77;;;7.88;;
69835;SDS011;57132;51.972;4.450;2023-04-24T00:03:26;12.27;;;7.50;;
69835;SDS011;57132;51.972;4.450;2023-04-24T00:05:52;10.52;;;6.57;;
69835;SDS011;57132;51.972;4.450;2023-04-24T00:08:19;11.45;;;7.05;;
69835;SDS011;57132;51.972;4.450;2023-04-24T00:10:45;16.38;;;7.60;;
69835;SDS011;57132;51.972;4.450;2023-04-24T00:13:11;13.30;;;7.35;;
69835;SDS011;57132;51.972;4.450;2023-04-24T00:15:38;14.63;;;7.78;;
69835;SDS011;57132;51.972;4.450;2023-04-24T00:18:03;13.80;;;7.90;;
69835;SDS011;57132;51.972;4.450;2023-04-24T00:20:29;12.10;;;8.18;;
69835;SDS011;57132;51.972;4.450;2023-04-24T00:22:54;10.57;;;7.10;;
69835;SDS011;57132;51.972;4.450;2023-04-24T00:25:20;12.30;;;7.43;;
69835;SDS011;57132;51.972;4.450;2023-04-24T00:27:46;10.57;;;6.32;;
69835;SDS011;57132;51.972;4.450;2023-04-24T00:30:11;13.73;;;7.22;;
69835;SDS011;57132;51.972;4.450;2023-04-24T00:32:36;12.48;;;7.68;;
69835;SDS011;57132;51.972;4.450;2023-04-24T00:35:02;15.90;;;8.43;;
69835;SDS011;57132;51.972;4.450;2023-04-24T00:37:27;13.80;;;6.80;;
69835;SDS011;57132;51.972;4.450;2023-04-24T00:39:53;10.65;;;6.43;;
69835;SDS011;57132;51.972;4.450;2023-04-24T00:42:19;9.77;;;5.75;;
69835;SDS011;57132;51.972;4.450;2023-04-24T00:44:44;10.32;;;5.78;;
69835;SDS011;57132;51.972;4.450;2023-04-24T00:47:10;8.20;;;5.10;;
69835;SDS011;57132;51.972;4.450;2023-04-24T00:49:36;12.07;;;4.90;;
69835;SDS011;57132;51.972;4.450;2023-04-24T00:52:02;14.20;;;5.95;;
69835;SDS011;57132;51.972;4.450;2023-04-24T00:54:27;9.25;;;5.80;;
69835;SDS011;57132;51.972;4.450;2023-04-24T00:56:52;10.65;;;5.68;;
69835;SDS011;57132;51.972;4.450;2023-04-24T00:59:18;9.40;;;5.07;;
69835;SDS011;57132;51.972;4.450;2023-04-24T01:01:44;16.92;;;6.43;;
69835;SDS011;57132;51.972;4.450;2023-04-24T01:04:11;15.77;;;6.53;;
69835;SDS011;57132;51.972;4.450;2023-04-24T01:06:38;16.33;;;8.13;;
69835;SDS011;57132;51.972;4.450;2023-04-24T01:09:04;14.02;;;7.95;;
69835;SDS011;57132;51.972;4.450;2023-04-24T01:11:30;18.42;;;9.40;;
69835;SDS011;57132;51.972;4.450;2023-04-24T01:13:55;20.38;;;10.95;;
69835;SDS011;57132;51.972;4.450;2023-04-24T01:16:21;22.35;;;11.75;;
69835;SDS011;57132;51.972;4.450;2023-04-24T01:18:47;26.20;;;13.32;;
69835;SDS011;57132;51.972;4.450;2023-04-24T01:21:13;13.82;;;8.50;;
69835;SDS011;57132;51.972;4.450;2023-04-24T01:23:41;16.88;;;7.00;;
69835;SDS011;57132;51.972;4.450;2023-04-24T01:26:10;9.20;;;5.13;;
69835;SDS011;57132;51.972;4.450;2023-04-24T01:28:36;6.57;;;3.35;;
69835;SDS011;57132;51.972;4.450;2023-04-24T01:31:02;6.07;;;2.47;;
69835;SDS011;57132;51.972;4.450;2023-04-24T01:33:28;2.47;;;1.38;;
69835;SDS011;57132;51.972;4.450;2023-04-24T01:35:53;4.22;;;1.35;;
69835;SDS011;57132;51.972;4.450;2023-04-24T01:38:19;2.42;;;1.50;;
69835;SDS011;57132;51.972;4.450;2023-04-24T01:40:44;2.88;;;0.90;;
69835;SDS011;57132;51.972;4.450;2023-04-24T01:43:10;2.25;;;1.20;;
69835;SDS011;57132;51.972;4.450;2023-04-24T01:45:36;2.85;;;1.27;;
69835;SDS011;57132;51.972;4.450;2023-04-24T01:48:02;2.28;;;1.30;;
69835;SDS011;57132;51.972;4.450;2023-04-24T01:50:27;2.00;;;1.30;;
69835;SDS011;57132;51.972;4.450;2023-04-24T01:52:53;2.20;;;1.30;;
69835;SDS011;57132;51.972;4.450;2023-04-24T01:55:18;2.00;;;1.20;;
69835;SDS011;57132;51.972;4.450;2023-04-24T01:57:43;2.47;;;1.52;;
69835;SDS011;57132;51.972;4.450;2023-04-24T02:00:09;3.38;;;1.50;;
69835;SDS011;57132;51.972;4.450;2023-04-24T02:02:37;3.22;;;1.70;;
69835;SDS011;57132;51.972;4.450;2023-04-24T02:05:05;4.10;;;1.55;;
69835;SDS011;57132;51.972;4.450;2023-04-24T02:07:31;3.83;;;2.00;;
69835;SDS011;57132;51.972;4.450;2023-04-24T02:09:57;4.22;;;1.73;;
69835;SDS011;57132;51.972;4.450;2023-04-24T02:12:23;3.08;;;1.90;;
69835;SDS011;57132;51.972;4.450;2023-04-24T02:14:48;7.57;;;2.33;;
69835;SDS011;57132;51.972;4.450;2023-04-24T02:17:13;8.98;;;2.50;;
69835;SDS011;57132;51.972;4.450;2023-04-24T02:19:40;4.40;;;2.85;;
69835;SDS011;57132;51.972;4.450;2023-04-24T02:22:06;4.35;;;2.45;;
69835;SDS011;57132;51.972;4.450;2023-04-24T02:24:31;4.70;;;2.72;;
69835;SDS011;57132;51.972;4.450;2023-04-24T02:26:56;6.55;;;3.13;;
69835;SDS011;57132;51.972;4.450;2023-04-24T02:29:23;5.15;;;3.17;;
69835;SDS011;57132;51.972;4.450;2023-04-24T02:31:48;6.32;;;3.55;;
69835;SDS011;57132;51.972;4.450;2023-04-24T02:34:13;8.35;;;4.05;;
69835;SDS011;57132;51.972;4.450;2023-04-24T02:36:39;11.23;;;3.95;;
69835;SDS011;57132;51.972;4.450;2023-04-24T02:39:04;7.22;;;3.90;;
69835;SDS011;57132;51.972;4.450;2023-04-24T02:41:30;9.73;;;4.30;;
69835;SDS011;57132;51.972;4.450;2023-04-24T02:43:57;14.60;;;4.10;;
69835;SDS011;57132;51.972;4.450;2023-04-24T02:46:23;9.18;;;3.67;;
69835;SDS011;57132;51.972;4.450;2023-04-24T02:48:49;7.43;;;2.30;;
69835;SDS011;57132;51.972;4.450;2023-04-24T02:51:14;6.18;;;1.40;;
69835;SDS011;57132;51.972;4.450;2023-04-24T02:53:40;3.78;;;1.50;;
69835;SDS011;57132;51.972;4.450;2023-04-24T02:56:05;2.83;;;1.25;;
69835;SDS011;57132;51.972;4.450;2023-04-24T02:58:30;3.00;;;1.98;;
69835;SDS011;57132;51.972;4.450;2023-04-24T03:00:56;6.53;;;1.52;;
69835;SDS011;57132;51.972;4.450;2023-04-24T03:03:21;6.57;;;1.25;;
69835;SDS011;57132;51.972;4.450;2023-04-24T03:05:47;3.42;;;1.60;;
69835;SDS011;57132;51.972;4.450;2023-04-24T03:08:12;7.03;;;1.73;;
69835;SDS011;57132;51.972;4.450;2023-04-24T03:10:39;6.97;;;2.00;;
69835;SDS011;57132;51.972;4.450;2023-04-24T03:13:04;5.18;;;2.17;;
69835;SDS011;57132;51.972;4.450;2023-04-24T03:15:30;5.20;;;1.98;;
69835;SDS011;57132;51.972;4.450;2023-04-24T03:17:55;6.38;;;2.38;;
69835;SDS011;57132;51.972;4.450;2023-04-24T03:20:21;5.68;;;2.00;;
69835;SDS011;57132;51.972;4.450;2023-04-24T03:22:46;5.03;;;2.15;;
69835;SDS011;57132;51.972;4.450;2023-04-24T03:25:11;5.93;;;2.05;;
69835;SDS011;57132;51.972;4.450;2023-04-24T03:27:37;7.35;;;2.30;;
69835;SDS011;57132;51.972;4.450;2023-04-24T03:30:02;5.53;;;2.20;;
69835;SDS011;57132;51.972;4.450;2023-04-24T03:32:28;4.68;;;2.20;;
69835;SDS011;57132;51.972;4.450;2023-04-24T03:34:53;4.13;;;1.85;;
69835;SDS011;57132;51.972;4.450;2023-04-24T03:37:19;6.78;;;2.45;;
69835;SDS011;57132;51.972;4.450;2023-04-24T03:39:44;3.58;;;2.08;;
69835;SDS011;57132;51.972;4.450;2023-04-24T03:42:09;5.35;;;2.05;;
69835;SDS011;57132;51.972;4.450;2023-04-24T03:44:35;6.22;;;1.92;;
69835;SDS011;57132;51.972;4.450;2023-04-24T03:47:01;5.43;;;2.10;;
69835;SDS011;57132;51.972;4.450;2023-04-24T03:49:26;4.20;;;2.22;;
69835;SDS011;57132;51.972;4.450;2023-04-24T03:51:52;4.40;;;2.17;;
69835;SDS011;57132;51.972;4.450;2023-04-24T03:54:18;4.72;;;1.83;;
69835;SDS011;57132;51.972;4.450;2023-04-24T03:56:43;4.00;;;1.60;;
69835;SDS011;57132;51.972;4.450;2023-04-24T03:59:09;2.83;;;1.60;;
69835;SDS011;57132;51.972;4.450;2023-04-24T04:01:34;5.22;;;1.73;;
69835;SDS011;57132;51.972;4.450;2023-04-24T04:04:02;4.90;;;2.10;;
69835;SDS011;57132;51.972;4.450;2023-04-24T04:06:28;3.60;;;2.08;;
69835;SDS011;57132;51.972;4.450;2023-04-24T04:08:55;6.65;;;2.05;;
69835;SDS011;57132;51.972;4.450;2023-04-24T04:11:21;5.03;;;2.30;;
69835;SDS011;57132;51.972;4.450;2023-04-24T04:13:46;6.93;;;2.50;;
69835;SDS011;57132;51.972;4.450;2023-04-24T04:16:12;3.35;;;2.00;;
69835;SDS011;57132;51.972;4.450;2023-04-24T04:18:38;6.65;;;2.63;;
69835;SDS011;57132;51.972;4.450;2023-04-24T04:21:03;5.45;;;2.38;;
69835;SDS011;57132;51.972;4.450;2023-04-24T04:23:29;4.28;;;2.70;;
69835;SDS011;57132;51.972;4.450;2023-04-24T04:25:54;5.88;;;3.53;;
69835;SDS011;57132;51.972;4.450;2023-04-24T04:28:20;13.02;;;4.80;;
69835;SDS011;57132;51.972;4.450;2023-04-24T04:30:46;8.23;;;4.78;;
69835;SDS011;57132;51.972;4.450;2023-04-24T04:33:12;13.75;;;5.80;;
69835;SDS011;57132;51.972;4.450;2023-04-24T04:35:37;17.42;;;6.00;;
69835;SDS011;57132;51.972;4.450;2023-04-24T04:38:03;12.05;;;5.07;;
69835;SDS011;57132;51.972;4.450;2023-04-24T04:40:29;9.85;;;4.57;;
69835;SDS011;57132;51.972;4.450;2023-04-24T04:42:55;8.55;;;3.50;;
69835;SDS011;57132;51.972;4.450;2023-04-24T04:45:20;8.93;;;4.00;;
69835;SDS011;57132;51.972;4.450;2023-04-24T04:47:46;8.93;;;4.22;;
69835;SDS011;57132;51.972;4.450;2023-04-24T04:50:12;8.95;;;4.63;;
69835;SDS011;57132;51.972;4.450;2023-04-24T04:52:37;11.85;;;6.22;;
69835;SDS011;57132;51.972;4.450;2023-04-24T04:55:03;17.42;;;8.50;;
69835;SDS011;57132;51.972;4.450;2023-04-24T04:57:28;16.23;;;9.90;;
69835;SDS011;57132;51.972;4.450;2023-04-24T04:59:55;27.35;;;12.23;;
69835;SDS011;57132;51.972;4.450;2023-04-24T05:02:20;24.63;;;13.27;;
69835;SDS011;57132;51.972;4.450;2023-04-24T05:04:45;26.27;;;13.07;;
69835;SDS011;57132;51.972;4.450;2023-04-24T05:07:11;25.42;;;13.02;;
69835;SDS011;57132;51.972;4.450;2023-04-24T05:09:36;30.33;;;13.57;;
69835;SDS011;57132;51.972;4.450;2023-04-24T05:12:02;22.90;;;11.52;;
69835;SDS011;57132;51.972;4.450;2023-04-24T05:14:27;21.98;;;10.88;;
69835;SDS011;57132;51.972;4.450;2023-04-24T05:16:53;28.55;;;12.77;;
69835;SDS011;57132;51.972;4.450;2023-04-24T05:19:18;22.55;;;12.23;;
69835;SDS011;57132;51.972;4.450;2023-04-24T05:21:43;22.98;;;12.10;;
69835;SDS011;57132;51.972;4.450;2023-04-24T05:24:09;28.95;;;12.82;;
69835;SDS011;57132;51.972;4.450;2023-04-24T05:26:34;29.50;;;12.77;;
69835;SDS011;57132;51.972;4.450;2023-04-24T05:29:00;30.48;;;14.10;;
69835;SDS011;57132;51.972;4.450;2023-04-24T05:31:26;24.80;;;12.43;;
69835;SDS011;57132;51.972;4.450;2023-04-24T05:33:51;29.77;;;12.90;;
69835;SDS011;57132;51.972;4.450;2023-04-24T05:36:17;26.73;;;13.13;;
69835;SDS011;57132;51.972;4.450;2023-04-24T05:38:42;28.80;;;12.80;;
69835;SDS011;57132;51.972;4.450;2023-04-24T05:41:07;29.35;;;12.90;;
69835;SDS011;57132;51.972;4.450;2023-04-24T05:43:33;31.58;;;12.73;;
69835;SDS011;57132;51.972;4.450;2023-04-24T05:45:58;28.50;;;13.32;;
69835;SDS011;57132;51.972;4.450;2023-04-24T05:48:24;27.20;;;12.68;;
69835;SDS011;57132;51.972;4.450;2023-04-24T05:50:49;28.42;;;12.10;;
69835;SDS011;57132;51.972;4.450;2023-04-24T05:53:15;28.92;;;13.45;;
69835;SDS011;57132;51.972;4.450;2023-04-24T05:55:41;32.38;;;13.02;;
69835;SDS011;57132;51.972;4.450;2023-04-24T05:58:06;33.53;;;13.45;;
69835;SDS011;57132;51.972;4.450;2023-04-24T06:00:32;26.13;;;11.65;;
69835;SDS011;57132;51.972;4.450;2023-04-24T06:02:59;23.80;;;11.00;;
69835;SDS011;57132;51.972;4.450;2023-04-24T06:05:25;25.58;;;10.50;;
69835;SDS011;57132;51.972;4.450;2023-04-24T06:07:54;27.27;;;9.35;;
69835;SDS011;57132;51.972;4.450;2023-04-24T06:10:20;27.80;;;8.57;;
69835;SDS011;57132;51.972;4.450;2023-04-24T06:12:45;24.48;;;9.60;;
69835;SDS011;57132;51.972;4.450;2023-04-24T06:15:11;19.83;;;7.30;;
69835;SDS011;57132;51.972;4.450;2023-04-24T06:17:36;29.58;;;8.98;;
69835;SDS011;57132;51.972;4.450;2023-04-24T06:20:02;28.75;;;8.68;;
69835;SDS011;57132;51.972;4.450;2023-04-24T06:22:30;20.92;;;7.65;;
69835;SDS011;57132;51.972;4.450;2023-04-24T06:24:55;22.85;;;6.28;;
69835;SDS011;57132;51.972;4.450;2023-04-24T06:27:20;20.35;;;6.43;;
69835;SDS011;57132;51.972;4.450;2023-04-24T06:29:46;18.73;;;6.63;;
69835;SDS011;57132;51.972;4.450;2023-04-24T06:32:17;21.58;;;6.35;;
69835;SDS011;57132;51.972;4.450;2023-04-24T06:34:42;18.23;;;6.47;;
69835;SDS011;57132;51.972;4.450;2023-04-24T06:37:08;17.98;;;7.15;;
69835;SDS011;57132;51.972;4.450;2023-04-24T06:39:33;21.60;;;6.38;;
69835;SDS011;57132;51.972;4.450;2023-04-24T06:41:58;26.58;;;6.30;;
69835;SDS011;57132;51.972;4.450;2023-04-24T06:44:24;21.23;;;5.75;;
69835;SDS011;57132;51.972;4.450;2023-04-24T06:46:49;19.92;;;7.07;;
69835;SDS011;57132;51.972;4.450;2023-04-24T06:49:15;16.83;;;6.03;;
69835;SDS011;57132;51.972;4.450;2023-04-24T06:51:40;22.85;;;6.38;;
69835;SDS011;57132;51.972;4.450;2023-04-24T06:54:06;31.88;;;7.05;;
69835;SDS011;57132;51.972;4.450;2023-04-24T06:56:31;20.77;;;5.65;;
69835;SDS011;57132;51.972;4.450;2023-04-24T06:58:59;16.98;;;5.07;;
69835;SDS011;57132;51.972;4.450;2023-04-24T07:01:24;12.75;;;4.45;;
69835;SDS011;57132;51.972;4.450;2023-04-24T07:03:50;23.20;;;4.18;;
69835;SDS011;57132;51.972;4.450;2023-04-24T07:06:15;18.17;;;5.20;;
69835;SDS011;57132;51.972;4.450;2023-04-24T07:08:41;19.70;;;4.80;;
69835;SDS011;57132;51.972;4.450;2023-04-24T07:11:07;21.05;;;4.65;;
69835;SDS011;57132;51.972;4.450;2023-04-24T07:13:33;20.23;;;5.30;;
69835;SDS011;57132;51.972;4.450;2023-04-24T07:16:00;23.13;;;5.47;;
69835;SDS011;57132;51.972;4.450;2023-04-24T07:18:25;14.48;;;4.20;;
69835;SDS011;57132;51.972;4.450;2023-04-24T07:20:51;16.83;;;3.33;;
69835;SDS011;57132;51.972;4.450;2023-04-24T07:23:17;13.43;;;4.13;;
69835;SDS011;57132;51.972;4.450;2023-04-24T07:25:43;11.52;;;3.70;;
69835;SDS011;57132;51.972;4.450;2023-04-24T07:28:09;12.95;;;4.35;;
69835;SDS011;57132;51.972;4.450;2023-04-24T07:30:34;12.48;;;3.33;;
69835;SDS011;57132;51.972;4.450;2023-04-24T07:32:59;22.30;;;4.03;;
69835;SDS011;57132;51.972;4.450;2023-04-24T07:35:26;21.55;;;3.88;;
69835;SDS011;57132;51.972;4.450;2023-04-24T07:37:54;23.70;;;3.88;;
69835;SDS011;57132;51.972;4.450;2023-04-24T07:40:20;18.92;;;2.97;;
69835;SDS011;57132;51.972;4.450;2023-04-24T07:42:46;19.27;;;3.92;;
69835;SDS011;57132;51.972;4.450;2023-04-24T07:45:13;18.50;;;4.10;;
69835;SDS011;57132;51.972;4.450;2023-04-24T07:47:39;12.85;;;3.22;;
69835;SDS011;57132;51.972;4.450;2023-04-24T07:50:08;20.45;;;3.60;;
69835;SDS011;57132;51.972;4.450;2023-04-24T07:52:34;16.08;;;3.53;;
69835;SDS011;57132;51.972;4.450;2023-04-24T07:55:00;16.13;;;3.38;;
69835;SDS011;57132;51.972;4.450;2023-04-24T07:57:26;13.02;;;4.05;;
69835;SDS011;57132;51.972;4.450;2023-04-24T07:59:52;9.55;;;2.75;;
69835;SDS011;57132;51.972;4.450;2023-04-24T08:02:17;9.52;;;3.10;;
69835;SDS011;57132;51.972;4.450;2023-04-24T08:04:43;7.95;;;2.83;;
69835;SDS011;57132;51.972;4.450;2023-04-24T08:07:08;14.13;;;3.25;;
69835;SDS011;57132;51.972;4.450;2023-04-24T08:09:33;9.57;;;3.25;;
69835;SDS011;57132;51.972;4.450;2023-04-24T08:11:59;14.20;;;3.42;;
69835;SDS011;57132;51.972;4.450;2023-04-24T08:14:24;8.80;;;2.63;;
69835;SDS011;57132;51.972;4.450;2023-04-24T08:16:50;13.25;;;3.10;;
69835;SDS011;57132;51.972;4.450;2023-04-24T08:19:15;12.80;;;2.78;;
69835;SDS011;57132;51.972;4.450;2023-04-24T08:21:41;15.45;;;2.85;;
69835;SDS011;57132;51.972;4.450;2023-04-24T08:24:06;9.82;;;2.42;;
69835;SDS011;57132;51.972;4.450;2023-04-24T08:26:33;10.80;;;3.65;;
69835;SDS011;57132;51.972;4.450;2023-04-24T08:28:58;11.65;;;2.90;;
69835;SDS011;57132;51.972;4.450;2023-04-24T08:31:23;7.65;;;2.47;;
69835;SDS011;57132;51.972;4.450;2023-04-24T08:33:50;13.30;;;3.17;;
69835;SDS011;57132;51.972;4.450;2023-04-24T08:36:15;10.45;;;2.40;;
69835;SDS011;57132;51.972;4.450;2023-04-24T08:38:41;12.52;;;2.42;;
69835;SDS011;57132;51.972;4.450;2023-04-24T08:41:07;7.72;;;2.20;;
69835;SDS011;57132;51.972;4.450;2023-04-24T08:43:34;9.32;;;2.97;;
69835;SDS011;57132;51.972;4.450;2023-04-24T08:46:01;11.18;;;2.42;;
69835;SDS011;57132;51.972;4.450;2023-04-24T08:48:27;8.55;;;1.77;;
69835;SDS011;57132;51.972;4.450;2023-04-24T08:50:52;5.78;;;2.13;;
69835;SDS011;57132;51.972;4.450;2023-04-24T08:53:19;4.72;;;1.92;;
69835;SDS011;57132;51.972;4.450;2023-04-24T08:55:46;5.25;;;1.60;;
69835;SDS011;57132;51.972;4.450;2023-04-24T08:58:13;6.18;;;1.70;;
69835;SDS011;57132;51.972;4.450;2023-04-24T09:00:40;6.47;;;1.35;;
69835;SDS011;57132;51.972;4.450;2023-04-24T09:03:11;12.10;;;2.20;;
69835;SDS011;57132;51.972;4.450;2023-04-24T09:05:39;7.30;;;2.03;;
69835;SDS011;57132;51.972;4.450;2023-04-24T09:08:05;8.50;;;1.40;;
69835;SDS011;57132;51.972;4.450;2023-04-24T09:10:32;10.95;;;1.73;;
69835;SDS011;57132;51.972;4.450;2023-04-24T09:12:59;5.00;;;1.42;;
69835;SDS011;57132;51.972;4.450;2023-04-24T09:15:27;4.32;;;1.52;;
69835;SDS011;57132;51.972;4.450;2023-04-24T09:17:52;6.43;;;1.77;;
69835;SDS011;57132;51.972;4.450;2023-04-24T09:20:18;4.30;;;1.52;;
69835;SDS011;57132;51.972;4.450;2023-04-24T09:22:43;8.45;;;1.50;;
69835;SDS011;57132;51.972;4.450;2023-04-24T09:25:10;7.63;;;1.45;;
69835;SDS011;57132;51.972;4.450;2023-04-24T09:27:41;7.03;;;2.40;;
69835;SDS011;57132;51.972;4.450;2023-04-24T09:30:09;3.78;;;0.98;;
69835;SDS011;57132;51.972;4.450;2023-04-24T09:32:34;3.58;;;1.15;;
69835;SDS011;57132;51.972;4.450;2023-04-24T09:35:13;4.55;;;1.20;;
69835;SDS011;57132;51.972;4.450;2023-04-24T09:37:44;9.13;;;1.10;;
69835;SDS011;57132;51.972;4.450;2023-04-24T09:40:20;5.70;;;1.10;;
69835;SDS011;57132;51.972;4.450;2023-04-24T09:42:53;5.18;;;1.83;;
69835;SDS011;57132;51.972;4.450;2023-04-24T09:45:27;8.48;;;1.38;;
69835;SDS011;57132;51.972;4.450;2023-04-24T09:47:53;10.55;;;1.63;;
69835;SDS011;57132;51.972;4.450;2023-04-24T09:50:20;3.03;;;0.82;;
69835;SDS011;57132;51.972;4.450;2023-04-24T09:52:46;5.07;;;1.48;;
69835;SDS011;57132;51.972;4.450;2023-04-24T09:55:21;6.30;;;2.20;;
69835;SDS011;57132;51.972;4.450;2023-04-24T09:57:56;9.82;;;1.27;;
69835;SDS011;57132;51.972;4.450;2023-04-24T10:00:26;7.28;;;1.40;;
69835;SDS011;57132;51.972;4.450;2023-04-24T10:03:00;11.25;;;1.98;;
69835;SDS011;57132;51.972;4.450;2023-04-24T10:05:30;5.25;;;1.20;;
69835;SDS011;57132;51.972;4.450;2023-04-24T10:08:06;6.53;;;1.17;;
69835;SDS011;57132;51.972;4.450;2023-04-24T10:10:34;6.28;;;1.48;;
69835;SDS011;57132;51.972;4.450;2023-04-24T10:13:07;6.38;;;1.77;;
69835;SDS011;57132;51.972;4.450;2023-04-24T10:15:34;6.45;;;1.85;;
69835;SDS011;57132;51.972;4.450;2023-04-24T10:18:00;8.32;;;1.20;;
69835;SDS011;57132;51.972;4.450;2023-04-24T10:20:26;10.13;;;1.15;;
69835;SDS011;57132;51.972;4.450;2023-04-24T10:22:54;10.02;;;1.77;;
69835;SDS011;57132;51.972;4.450;2023-04-24T10:25:21;8.98;;;1.35;;
69835;SDS011;57132;51.972;4.450;2023-04-24T10:27:49;9.85;;;2.08;;
69835;SDS011;57132;51.972;4.450;2023-04-24T10:30:16;10.23;;;1.50;;
69835;SDS011;57132;51.972;4.450;2023-04-24T10:32:42;11.40;;;2.45;;
69835;SDS011;57132;51.972;4.450;2023-04-24T10:35:08;8.88;;;1.35;;
69835;SDS011;57132;51.972;4.450;2023-04-24T10:37:48;11.30;;;2.55;;
69835;SDS011;57132;51.972;4.450;2023-04-24T10:40:19;10.60;;;1.40;;
69835;SDS011;57132;51.972;4.450;2023-04-24T10:42:51;10.35;;;1.77;;
69835;SDS011;57132;51.972;4.450;2023-04-24T10:45:20;10.00;;;2.70;;
69835;SDS011;57132;51.972;4.450;2023-04-24T10:47:59;16.77;;;3.08;;
69835;SDS011;57132;51.972;4.450;2023-04-24T10:50:28;6.57;;;1.95;;
69835;SDS011;57132;51.972;4.450;2023-04-24T10:53:05;7.22;;;1.73;;
69835;SDS011;57132;51.972;4.450;2023-04-24T10:55:47;7.05;;;1.60;;
69835;SDS011;57132;51.972;4.450;2023-04-24T10:58:15;6.25;;;1.38;;
69835;SDS011;57132;51.972;4.450;2023-04-24T11:00:54;3.42;;;1.00;;
69835;SDS011;57132;51.972;4.450;2023-04-24T11:03:25;6.15;;;1.20;;
69835;SDS011;57132;51.972;4.450;2023-04-24T11:06:01;8.65;;;1.02;;
69835;SDS011;57132;51.972;4.450;2023-04-24T11:08:44;5.63;;;1.13;;
69835;SDS011;57132;51.972;4.450;2023-04-24T11:11:11;6.15;;;1.77;;
69835;SDS011;57132;51.972;4.450;2023-04-24T11:19:03;2.55;;;0.60;;
69835;SDS011;57132;51.972;4.450;2023-04-24T11:21:31;5.93;;;1.42;;
69835;SDS011;57132;51.972;4.450;2023-04-24T11:23:57;2.95;;;0.88;;
69835;SDS011;57132;51.972;4.450;2023-04-24T11:26:23;5.35;;;1.55;;
69835;SDS011;57132;51.972;4.450;2023-04-24T11:29:05;4.57;;;1.30;;
69835;SDS011;57132;51.972;4.450;2023-04-24T11:31:44;5.10;;;1.10;;
69835;SDS011;57132;51.972;4.450;2023-04-24T11:34:16;8.27;;;1.55;;
69835;SDS011;57132;51.972;4.450;2023-04-24T11:36:46;2.83;;;1.13;;
69835;SDS011;57132;51.972;4.450;2023-04-24T11:39:12;4.35;;;0.90;;
69835;SDS011;57132;51.972;4.450;2023-04-24T11:41:38;9.48;;;2.00;;
69835;SDS011;57132;51.972;4.450;2023-04-24T11:44:05;12.02;;;1.80;;
69835;SDS011;57132;51.972;4.450;2023-04-24T11:46:32;8.23;;;1.63;;
69835;SDS011;57132;51.972;4.450;2023-04-24T11:48:58;7.68;;;1.88;;
69835;SDS011;57132;51.972;4.450;2023-04-24T11:51:25;11.95;;;1.90;;
69835;SDS011;57132;51.972;4.450;2023-04-24T11:53:51;8.90;;;1.80;;
69835;SDS011;57132;51.972;4.450;2023-04-24T11:56:18;10.52;;;1.83;;
69835;SDS011;57132;51.972;4.450;2023-04-24T11:58:47;8.32;;;1.88;;
69835;SDS011;57132;51.972;4.450;2023-04-24T12:01:13;8.27;;;1.75;;
69835;SDS011;57132;51.972;4.450;2023-04-24T12:03:38;6.53;;;1.98;;
69835;SDS011;57132;51.972;4.450;2023-04-24T12:06:07;7.22;;;1.67;;
69835;SDS011;57132;51.972;4.450;2023-04-24T12:08:33;10.02;;;2.25;;
69835;SDS011;57132;51.972;4.450;2023-04-24T12:11:02;11.07;;;2.70;;
69835;SDS011;57132;51.972;4.450;2023-04-24T12:13:32;11.73;;;2.08;;
69835;SDS011;57132;51.972;4.450;2023-04-24T12:15:58;10.15;;;2.30;;
69835;SDS011;57132;51.972;4.450;2023-04-24T12:18:23;7.20;;;2.10;;
69835;SDS011;57132;51.972;4.450;2023-04-24T12:20:49;12.10;;;2.88;;
69835;SDS011;57132;51.972;4.450;2023-04-24T12:23:15;17.30;;;2.88;;
69835;SDS011;57132;51.972;4.450;2023-04-24T12:25:40;11.13;;;2.28;;
69835;SDS011;57132;51.972;4.450;2023-04-24T12:30:32;9.18;;;2.22;;
69835;SDS011;57132;51.972;4.450;2023-04-24T12:33:04;13.95;;;2.78;;
69835;SDS011;57132;51.972;4.450;2023-04-24T12:35:31;15.20;;;3.05;;
69835;SDS011;57132;51.972;4.450;2023-04-24T12:38:12;14.05;;;3.40;;
69835;SDS011;57132;51.972;4.450;2023-04-24T12:40:38;12.95;;;2.45;;
69835;SDS011;57132;51.972;4.450;2023-04-24T12:43:16;12.40;;;3.33;;
69835;SDS011;57132;51.972;4.450;2023-04-24T12:45:42;13.93;;;2.47;;
69835;SDS011;57132;51.972;4.450;2023-04-24T12:48:09;22.38;;;2.95;;
69835;SDS011;57132;51.972;4.450;2023-04-24T12:50:34;13.00;;;2.45;;
69835;SDS011;57132;51.972;4.450;2023-04-24T12:52:59;20.10;;;3.03;;
69835;SDS011;57132;51.972;4.450;2023-04-24T12:55:25;11.50;;;3.00;;
69835;SDS011;57132;51.972;4.450;2023-04-24T12:57:50;10.43;;;2.58;;
69835;SDS011;57132;51.972;4.450;2023-04-24T13:00:15;12.73;;;3.30;;
69835;SDS011;57132;51.972;4.450;2023-04-24T13:02:41;12.35;;;3.65;;
69835;SDS011;57132;51.972;4.450;2023-04-24T13:05:06;13.65;;;3.50;;
69835;SDS011;57132;51.972;4.450;2023-04-24T13:07:33;13.45;;;2.85;;
69835;SDS011;57132;51.972;4.450;2023-04-24T13:09:59;17.45;;;3.42;;
69835;SDS011;57132;51.972;4.450;2023-04-24T13:12:24;10.35;;;3.08;;
69835;SDS011;57132;51.972;4.450;2023-04-24T13:14:51;12.73;;;3.03;;
69835;SDS011;57132;51.972;4.450;2023-04-24T13:17:16;11.57;;;2.60;;
69835;SDS011;57132;51.972;4.450;2023-04-24T13:19:42;10.98;;;2.90;;
69835;SDS011;57132;51.972;4.450;2023-04-24T13:22:09;12.30;;;4.05;;
69835;SDS011;57132;51.972;4.450;2023-04-24T13:24:37;9.48;;;3.05;;
69835;SDS011;57132;51.972;4.450;2023-04-24T13:27:03;13.20;;;3.20;;
69835;SDS011;57132;51.972;4.450;2023-04-24T13:29:29;16.48;;;3.90;;
69835;SDS011;57132;51.972;4.450;2023-04-24T13:31:54;11.48;;;3.05;;
69835;SDS011;57132;51.972;4.450;2023-04-24T13:34:21;21.70;;;3.78;;
69835;SDS011;57132;51.972;4.450;2023-04-24T13:36:53;12.00;;;3.55;;
69835;SDS011;57132;51.972;4.450;2023-04-24T13:39:20;15.27;;;4.50;;
69835;SDS011;57132;51.972;4.450;2023-04-24T13:41:46;11.75;;;3.13;;
69835;SDS011;57132;51.972;4.450;2023-04-24T13:44:13;13.32;;;2.83;;
69835;SDS011;57132;51.972;4.450;2023-04-24T13:46:39;9.77;;;2.67;;
69835;SDS011;57132;51.972;4.450;2023-04-24T13:49:04;8.00;;;2.95;;
69835;SDS011;57132;51.972;4.450;2023-04-24T13:51:30;11.00;;;3.10;;
69835;SDS011;57132;51.972;4.450;2023-04-24T13:53:55;16.02;;;3.63;;
69835;SDS011;57132;51.972;4.450;2023-04-24T13:56:21;10.45;;;3.53;;
69835;SDS011;57132;51.972;4.450;2023-04-24T13:58:47;17.83;;;4.20;;
69835;SDS011;57132;51.972;4.450;2023-04-24T14:01:13;18.88;;;3.33;;
69835;SDS011;57132;51.972;4.450;2023-04-24T14:03:41;19.13;;;3.90;;
69835;SDS011;57132;51.972;4.450;2023-04-24T14:06:08;14.93;;;4.40;;
69835;SDS011;57132;51.972;4.450;2023-04-24T14:08:33;15.50;;;4.05;;
69835;SDS011;57132;51.972;4.450;2023-04-24T14:10:59;20.67;;;5.10;;
69835;SDS011;57132;51.972;4.450;2023-04-24T14:13:25;15.25;;;4.75;;
69835;SDS011;57132;51.972;4.450;2023-04-24T14:15:51;21.13;;;5.78;;
69835;SDS011;57132;51.972;4.450;2023-04-24T14:18:17;18.73;;;5.00;;
69835;SDS011;57132;51.972;4.450;2023-04-24T14:20:43;15.25;;;4.70;;
69835;SDS011;57132;51.972;4.450;2023-04-24T14:23:08;19.17;;;6.18;;
69835;SDS011;57132;51.972;4.450;2023-04-24T14:25:34;12.10;;;4.30;;
69835;SDS011;57132;51.972;4.450;2023-04-24T14:27:59;18.48;;;5.80;;
69835;SDS011;57132;51.972;4.450;2023-04-24T14:30:25;26.63;;;6.18;;
69835;SDS011;57132;51.972;4.450;2023-04-24T14:32:50;20.52;;;4.32;;
69835;SDS011;57132;51.972;4.450;2023-04-24T14:35:15;15.98;;;5.60;;
69835;SDS011;57132;51.972;4.450;2023-04-24T14:37:40;19.02;;;4.13;;
69835;SDS011;57132;51.972;4.450;2023-04-24T14:40:07;13.88;;;3.83;;
69835;SDS011;57132;51.972;4.450;2023-04-24T14:42:33;15.48;;;3.50;;